<?xml version="1.0" encoding="UTF-8" standalone="no" ?>
<gpx xmlns="http://www.topografix.com/GPX/1/1" xmlns:xsi="http://www.w3.org/2001/XMLSchema-instance" xsi:schemaLocation="http://www.topografix.com/GPX/1/1 http://www.topografix.com/GPX/1/1/gpx.xsd" version="1.1" creator="VisuGPX - https://www.visugpx.com">
  <metadata>
    <name>83 - M - VIDAUBAN</name>
    <desc><![CDATA[VIDAUBAN. Randonnée Anchoaïde, le petit et le grand Peyloubier]]></desc>
  </metadata>
  <wpt lat="43.42088" lon="6.45245">
    <ele>179</ele>
    <name><![CDATA[]]></name>
    <type><![CDATA[GENERIC]]></type>
  </wpt>
  <wpt lat="43.42087" lon="6.45237">
    <ele>183</ele>
    <name><![CDATA[]]></name>
    <type><![CDATA[GENERIC]]></type>
  </wpt>
  <trk>
    <name><![CDATA[Randonnée anchoiade 2025]]></name>
    <trkseg>
      <trkpt lat="43.42087" lon="6.45237">
        <ele>183</ele>
        <time>2025-04-02T12:02:55.000Z</time>
      </trkpt>
      <trkpt lat="43.42089" lon="6.4524">
        <ele>175</ele>
        <time>2025-04-02T12:02:58.000Z</time>
      </trkpt>
      <trkpt lat="43.42093" lon="6.45268">
        <ele>171</ele>
        <time>2025-04-02T12:03:19.000Z</time>
      </trkpt>
      <trkpt lat="43.42095" lon="6.45303">
        <ele>171</ele>
        <time>2025-04-02T12:03:40.000Z</time>
      </trkpt>
      <trkpt lat="43.42099" lon="6.45335">
        <ele>173</ele>
        <time>2025-04-02T12:03:58.000Z</time>
      </trkpt>
      <trkpt lat="43.42103" lon="6.45369">
        <ele>172</ele>
        <time>2025-04-02T12:04:19.000Z</time>
      </trkpt>
      <trkpt lat="43.42108" lon="6.45402">
        <ele>170</ele>
        <time>2025-04-02T12:04:41.000Z</time>
      </trkpt>
      <trkpt lat="43.42118" lon="6.45428">
        <ele>170</ele>
        <time>2025-04-02T12:05:02.000Z</time>
      </trkpt>
      <trkpt lat="43.42125" lon="6.45457">
        <ele>170</ele>
        <time>2025-04-02T12:05:32.000Z</time>
      </trkpt>
      <trkpt lat="43.4213" lon="6.45488">
        <ele>169</ele>
        <time>2025-04-02T12:05:50.000Z</time>
      </trkpt>
      <trkpt lat="43.42134" lon="6.45519">
        <ele>168</ele>
        <time>2025-04-02T12:06:11.000Z</time>
      </trkpt>
      <trkpt lat="43.42135" lon="6.45551">
        <ele>167</ele>
        <time>2025-04-02T12:06:29.000Z</time>
      </trkpt>
      <trkpt lat="43.42131" lon="6.45582">
        <ele>166</ele>
        <time>2025-04-02T12:06:47.000Z</time>
      </trkpt>
      <trkpt lat="43.42116" lon="6.45608">
        <ele>165</ele>
        <time>2025-04-02T12:07:11.000Z</time>
      </trkpt>
      <trkpt lat="43.42101" lon="6.45631">
        <ele>163</ele>
        <time>2025-04-02T12:07:29.000Z</time>
      </trkpt>
      <trkpt lat="43.4209" lon="6.45658">
        <ele>162</ele>
        <time>2025-04-02T12:07:47.000Z</time>
      </trkpt>
      <trkpt lat="43.42083" lon="6.45689">
        <ele>160</ele>
        <time>2025-04-02T12:08:08.000Z</time>
      </trkpt>
      <trkpt lat="43.42076" lon="6.45721">
        <ele>159</ele>
        <time>2025-04-02T12:08:29.000Z</time>
      </trkpt>
      <trkpt lat="43.42063" lon="6.4575">
        <ele>157</ele>
        <time>2025-04-02T12:08:50.000Z</time>
      </trkpt>
      <trkpt lat="43.42047" lon="6.45775">
        <ele>155</ele>
        <time>2025-04-02T12:09:11.000Z</time>
      </trkpt>
      <trkpt lat="43.42031" lon="6.45799">
        <ele>153</ele>
        <time>2025-04-02T12:09:29.000Z</time>
      </trkpt>
      <trkpt lat="43.4202" lon="6.45831">
        <ele>151</ele>
        <time>2025-04-02T12:09:50.000Z</time>
      </trkpt>
      <trkpt lat="43.4201" lon="6.45864">
        <ele>149</ele>
        <time>2025-04-02T12:10:20.000Z</time>
      </trkpt>
      <trkpt lat="43.41996" lon="6.45889">
        <ele>148</ele>
        <time>2025-04-02T12:10:38.000Z</time>
      </trkpt>
      <trkpt lat="43.4198" lon="6.45913">
        <ele>147</ele>
        <time>2025-04-02T12:10:59.000Z</time>
      </trkpt>
      <trkpt lat="43.41973" lon="6.45942">
        <ele>146</ele>
        <time>2025-04-02T12:11:23.000Z</time>
      </trkpt>
      <trkpt lat="43.41979" lon="6.45974">
        <ele>145</ele>
        <time>2025-04-02T12:11:44.000Z</time>
      </trkpt>
      <trkpt lat="43.4198" lon="6.46004">
        <ele>143</ele>
        <time>2025-04-02T12:12:02.000Z</time>
      </trkpt>
      <trkpt lat="43.41971" lon="6.46031">
        <ele>141</ele>
        <time>2025-04-02T12:12:20.000Z</time>
      </trkpt>
      <trkpt lat="43.41955" lon="6.46053">
        <ele>139</ele>
        <time>2025-04-02T12:12:38.000Z</time>
      </trkpt>
      <trkpt lat="43.41937" lon="6.46073">
        <ele>138</ele>
        <time>2025-04-02T12:12:59.000Z</time>
      </trkpt>
      <trkpt lat="43.41924" lon="6.46098">
        <ele>137</ele>
        <time>2025-04-02T12:13:20.000Z</time>
      </trkpt>
      <trkpt lat="43.41912" lon="6.46127">
        <ele>135</ele>
        <time>2025-04-02T12:13:38.000Z</time>
      </trkpt>
      <trkpt lat="43.419" lon="6.46156">
        <ele>135</ele>
        <time>2025-04-02T12:13:59.000Z</time>
      </trkpt>
      <trkpt lat="43.41884" lon="6.4618">
        <ele>133</ele>
        <time>2025-04-02T12:14:17.000Z</time>
      </trkpt>
      <trkpt lat="43.4187" lon="6.46209">
        <ele>132</ele>
        <time>2025-04-02T12:14:38.000Z</time>
      </trkpt>
      <trkpt lat="43.41858" lon="6.46239">
        <ele>130</ele>
        <time>2025-04-02T12:14:59.000Z</time>
      </trkpt>
      <trkpt lat="43.41843" lon="6.46266">
        <ele>128</ele>
        <time>2025-04-02T12:15:17.000Z</time>
      </trkpt>
      <trkpt lat="43.41827" lon="6.46288">
        <ele>128</ele>
        <time>2025-04-02T12:15:35.000Z</time>
      </trkpt>
      <trkpt lat="43.41812" lon="6.46312">
        <ele>127</ele>
        <time>2025-04-02T12:15:53.000Z</time>
      </trkpt>
      <trkpt lat="43.41795" lon="6.46334">
        <ele>126</ele>
        <time>2025-04-02T12:16:17.000Z</time>
      </trkpt>
      <trkpt lat="43.41777" lon="6.46357">
        <ele>126</ele>
        <time>2025-04-02T12:16:35.000Z</time>
      </trkpt>
      <trkpt lat="43.41755" lon="6.46387">
        <ele>124</ele>
        <time>2025-04-02T12:17:00.000Z</time>
      </trkpt>
      <trkpt lat="43.41744" lon="6.46417">
        <ele>122</ele>
        <time>2025-04-02T12:17:23.000Z</time>
      </trkpt>
      <trkpt lat="43.41743" lon="6.46452">
        <ele>121</ele>
        <time>2025-04-02T12:17:44.000Z</time>
      </trkpt>
      <trkpt lat="43.41741" lon="6.46487">
        <ele>120</ele>
        <time>2025-04-02T12:18:05.000Z</time>
      </trkpt>
      <trkpt lat="43.41741" lon="6.46523">
        <ele>117</ele>
        <time>2025-04-02T12:18:26.000Z</time>
      </trkpt>
      <trkpt lat="43.41737" lon="6.46557">
        <ele>115</ele>
        <time>2025-04-02T12:18:47.000Z</time>
      </trkpt>
      <trkpt lat="43.41727" lon="6.46589">
        <ele>113</ele>
        <time>2025-04-02T12:19:08.000Z</time>
      </trkpt>
      <trkpt lat="43.4172" lon="6.4662">
        <ele>111</ele>
        <time>2025-04-02T12:19:26.000Z</time>
      </trkpt>
      <trkpt lat="43.41713" lon="6.4665">
        <ele>109</ele>
        <time>2025-04-02T12:19:53.000Z</time>
      </trkpt>
      <trkpt lat="43.41704" lon="6.46682">
        <ele>108</ele>
        <time>2025-04-02T12:20:14.000Z</time>
      </trkpt>
      <trkpt lat="43.41688" lon="6.46709">
        <ele>108</ele>
        <time>2025-04-02T12:25:11.000Z</time>
      </trkpt>
      <trkpt lat="43.41674" lon="6.46738">
        <ele>108</ele>
        <time>2025-04-02T12:25:32.000Z</time>
      </trkpt>
      <trkpt lat="43.41662" lon="6.46765">
        <ele>109</ele>
        <time>2025-04-02T12:25:47.000Z</time>
      </trkpt>
      <trkpt lat="43.41652" lon="6.46792">
        <ele>108</ele>
        <time>2025-04-02T12:26:05.000Z</time>
      </trkpt>
      <trkpt lat="43.4164" lon="6.46818">
        <ele>108</ele>
        <time>2025-04-02T12:26:23.000Z</time>
      </trkpt>
      <trkpt lat="43.41627" lon="6.46846">
        <ele>107</ele>
        <time>2025-04-02T12:26:41.000Z</time>
      </trkpt>
      <trkpt lat="43.41613" lon="6.46875">
        <ele>106</ele>
        <time>2025-04-02T12:27:02.000Z</time>
      </trkpt>
      <trkpt lat="43.41595" lon="6.46894">
        <ele>105</ele>
        <time>2025-04-02T12:27:23.000Z</time>
      </trkpt>
      <trkpt lat="43.41573" lon="6.46888">
        <ele>106</ele>
        <time>2025-04-02T12:27:44.000Z</time>
      </trkpt>
      <trkpt lat="43.41563" lon="6.46861">
        <ele>106</ele>
        <time>2025-04-02T12:28:05.000Z</time>
      </trkpt>
      <trkpt lat="43.41565" lon="6.46831">
        <ele>106</ele>
        <time>2025-04-02T12:28:26.000Z</time>
      </trkpt>
      <trkpt lat="43.41563" lon="6.46802">
        <ele>107</ele>
        <time>2025-04-02T12:28:47.000Z</time>
      </trkpt>
      <trkpt lat="43.41574" lon="6.46775">
        <ele>108</ele>
        <time>2025-04-02T12:29:11.000Z</time>
      </trkpt>
      <trkpt lat="43.41582" lon="6.46744">
        <ele>109</ele>
        <time>2025-04-02T12:29:32.000Z</time>
      </trkpt>
      <trkpt lat="43.41585" lon="6.46713">
        <ele>110</ele>
        <time>2025-04-02T12:29:53.000Z</time>
      </trkpt>
      <trkpt lat="43.41596" lon="6.46687">
        <ele>112</ele>
        <time>2025-04-02T12:30:17.000Z</time>
      </trkpt>
      <trkpt lat="43.41608" lon="6.4666">
        <ele>112</ele>
        <time>2025-04-02T12:30:35.000Z</time>
      </trkpt>
      <trkpt lat="43.41614" lon="6.46628">
        <ele>113</ele>
        <time>2025-04-02T12:31:02.000Z</time>
      </trkpt>
      <trkpt lat="43.41615" lon="6.46597">
        <ele>114</ele>
        <time>2025-04-02T12:31:23.000Z</time>
      </trkpt>
      <trkpt lat="43.41614" lon="6.46566">
        <ele>115</ele>
        <time>2025-04-02T12:31:44.000Z</time>
      </trkpt>
      <trkpt lat="43.41617" lon="6.46533">
        <ele>117</ele>
        <time>2025-04-02T12:32:08.000Z</time>
      </trkpt>
      <trkpt lat="43.41615" lon="6.46503">
        <ele>119</ele>
        <time>2025-04-02T12:32:29.000Z</time>
      </trkpt>
      <trkpt lat="43.41603" lon="6.46476">
        <ele>122</ele>
        <time>2025-04-02T12:32:53.000Z</time>
      </trkpt>
      <trkpt lat="43.41604" lon="6.46445">
        <ele>124</ele>
        <time>2025-04-02T12:33:17.000Z</time>
      </trkpt>
      <trkpt lat="43.41604" lon="6.46413">
        <ele>125</ele>
        <time>2025-04-02T12:33:41.000Z</time>
      </trkpt>
      <trkpt lat="43.41606" lon="6.4638">
        <ele>127</ele>
        <time>2025-04-02T12:34:08.000Z</time>
      </trkpt>
      <trkpt lat="43.4161" lon="6.46347">
        <ele>128</ele>
        <time>2025-04-02T12:34:32.000Z</time>
      </trkpt>
      <trkpt lat="43.41616" lon="6.46315">
        <ele>130</ele>
        <time>2025-04-02T12:34:53.000Z</time>
      </trkpt>
      <trkpt lat="43.41619" lon="6.46284">
        <ele>132</ele>
        <time>2025-04-02T12:35:14.000Z</time>
      </trkpt>
      <trkpt lat="43.41617" lon="6.46251">
        <ele>134</ele>
        <time>2025-04-02T12:35:38.000Z</time>
      </trkpt>
      <trkpt lat="43.4161" lon="6.4622">
        <ele>136</ele>
        <time>2025-04-02T12:36:03.000Z</time>
      </trkpt>
      <trkpt lat="43.41594" lon="6.46197">
        <ele>139</ele>
        <time>2025-04-02T12:36:24.000Z</time>
      </trkpt>
      <trkpt lat="43.41585" lon="6.46169">
        <ele>142</ele>
        <time>2025-04-02T12:42:06.000Z</time>
      </trkpt>
      <trkpt lat="43.4159" lon="6.46137">
        <ele>144</ele>
        <time>2025-04-02T12:42:30.000Z</time>
      </trkpt>
      <trkpt lat="43.41593" lon="6.46112">
        <ele>147</ele>
        <time>2025-04-02T12:43:00.000Z</time>
      </trkpt>
      <trkpt lat="43.41575" lon="6.46116">
        <ele>149</ele>
        <time>2025-04-02T12:46:09.000Z</time>
      </trkpt>
      <trkpt lat="43.41558" lon="6.46139">
        <ele>151</ele>
        <time>2025-04-02T12:46:29.000Z</time>
      </trkpt>
      <trkpt lat="43.41538" lon="6.46154">
        <ele>153</ele>
        <time>2025-04-02T12:46:53.000Z</time>
      </trkpt>
      <trkpt lat="43.41516" lon="6.46166">
        <ele>155</ele>
        <time>2025-04-02T12:47:17.000Z</time>
      </trkpt>
      <trkpt lat="43.41494" lon="6.46179">
        <ele>156</ele>
        <time>2025-04-02T12:47:41.000Z</time>
      </trkpt>
      <trkpt lat="43.41471" lon="6.46191">
        <ele>157</ele>
        <time>2025-04-02T12:48:02.000Z</time>
      </trkpt>
      <trkpt lat="43.41449" lon="6.46204">
        <ele>159</ele>
        <time>2025-04-02T12:48:21.000Z</time>
      </trkpt>
      <trkpt lat="43.41431" lon="6.46213">
        <ele>160</ele>
        <time>2025-04-02T12:48:42.000Z</time>
      </trkpt>
      <trkpt lat="43.41424" lon="6.46189">
        <ele>161</ele>
        <time>2025-04-02T12:57:06.000Z</time>
      </trkpt>
      <trkpt lat="43.41412" lon="6.46164">
        <ele>162</ele>
        <time>2025-04-02T12:57:27.000Z</time>
      </trkpt>
      <trkpt lat="43.41404" lon="6.46134">
        <ele>162</ele>
        <time>2025-04-02T12:57:48.000Z</time>
      </trkpt>
      <trkpt lat="43.41401" lon="6.46104">
        <ele>162</ele>
        <time>2025-04-02T12:58:06.000Z</time>
      </trkpt>
      <trkpt lat="43.41398" lon="6.46071">
        <ele>161</ele>
        <time>2025-04-02T12:58:27.000Z</time>
      </trkpt>
      <trkpt lat="43.41395" lon="6.46039">
        <ele>160</ele>
        <time>2025-04-02T12:58:49.000Z</time>
      </trkpt>
      <trkpt lat="43.41383" lon="6.46014">
        <ele>159</ele>
        <time>2025-04-02T12:59:16.000Z</time>
      </trkpt>
      <trkpt lat="43.41366" lon="6.45993">
        <ele>158</ele>
        <time>2025-04-02T12:59:37.000Z</time>
      </trkpt>
      <trkpt lat="43.41351" lon="6.4597">
        <ele>157</ele>
        <time>2025-04-02T12:59:55.000Z</time>
      </trkpt>
      <trkpt lat="43.41336" lon="6.45947">
        <ele>156</ele>
        <time>2025-04-02T13:00:16.000Z</time>
      </trkpt>
      <trkpt lat="43.41329" lon="6.45915">
        <ele>155</ele>
        <time>2025-04-02T13:00:37.000Z</time>
      </trkpt>
      <trkpt lat="43.41321" lon="6.45882">
        <ele>153</ele>
        <time>2025-04-02T13:00:58.000Z</time>
      </trkpt>
      <trkpt lat="43.41308" lon="6.45853">
        <ele>151</ele>
        <time>2025-04-02T13:01:22.000Z</time>
      </trkpt>
      <trkpt lat="43.4129" lon="6.45835">
        <ele>150</ele>
        <time>2025-04-02T13:01:46.000Z</time>
      </trkpt>
      <trkpt lat="43.41272" lon="6.45814">
        <ele>148</ele>
        <time>2025-04-02T13:04:16.000Z</time>
      </trkpt>
      <trkpt lat="43.41257" lon="6.45789">
        <ele>147</ele>
        <time>2025-04-02T13:04:43.000Z</time>
      </trkpt>
      <trkpt lat="43.41246" lon="6.45758">
        <ele>145</ele>
        <time>2025-04-02T13:05:07.000Z</time>
      </trkpt>
      <trkpt lat="43.41239" lon="6.45727">
        <ele>143</ele>
        <time>2025-04-02T13:05:28.000Z</time>
      </trkpt>
      <trkpt lat="43.41236" lon="6.45695">
        <ele>141</ele>
        <time>2025-04-02T13:05:49.000Z</time>
      </trkpt>
      <trkpt lat="43.41233" lon="6.45665">
        <ele>139</ele>
        <time>2025-04-02T13:06:13.000Z</time>
      </trkpt>
      <trkpt lat="43.41213" lon="6.45653">
        <ele>137</ele>
        <time>2025-04-02T13:06:46.000Z</time>
      </trkpt>
      <trkpt lat="43.41195" lon="6.45636">
        <ele>135</ele>
        <time>2025-04-02T13:07:16.000Z</time>
      </trkpt>
      <trkpt lat="43.4119" lon="6.45608">
        <ele>134</ele>
        <time>2025-04-02T13:07:43.000Z</time>
      </trkpt>
      <trkpt lat="43.41198" lon="6.45579">
        <ele>133</ele>
        <time>2025-04-02T13:10:07.000Z</time>
      </trkpt>
      <trkpt lat="43.41209" lon="6.45551">
        <ele>132</ele>
        <time>2025-04-02T13:10:31.000Z</time>
      </trkpt>
      <trkpt lat="43.41226" lon="6.45527">
        <ele>131</ele>
        <time>2025-04-02T13:10:55.000Z</time>
      </trkpt>
      <trkpt lat="43.41248" lon="6.45518">
        <ele>130</ele>
        <time>2025-04-02T13:13:28.000Z</time>
      </trkpt>
      <trkpt lat="43.4127" lon="6.45512">
        <ele>129</ele>
        <time>2025-04-02T13:13:49.000Z</time>
      </trkpt>
      <trkpt lat="43.41293" lon="6.45503">
        <ele>129</ele>
        <time>2025-04-02T13:14:10.000Z</time>
      </trkpt>
      <trkpt lat="43.41317" lon="6.455">
        <ele>128</ele>
        <time>2025-04-02T13:14:31.000Z</time>
      </trkpt>
      <trkpt lat="43.4134" lon="6.45504">
        <ele>128</ele>
        <time>2025-04-02T13:14:52.000Z</time>
      </trkpt>
      <trkpt lat="43.41365" lon="6.4551">
        <ele>129</ele>
        <time>2025-04-02T13:15:13.000Z</time>
      </trkpt>
      <trkpt lat="43.41387" lon="6.45523">
        <ele>129</ele>
        <time>2025-04-02T13:15:34.000Z</time>
      </trkpt>
      <trkpt lat="43.41407" lon="6.4554">
        <ele>129</ele>
        <time>2025-04-02T13:15:55.000Z</time>
      </trkpt>
      <trkpt lat="43.41429" lon="6.45556">
        <ele>129</ele>
        <time>2025-04-02T13:16:19.000Z</time>
      </trkpt>
      <trkpt lat="43.41448" lon="6.45575">
        <ele>130</ele>
        <time>2025-04-02T13:16:40.000Z</time>
      </trkpt>
      <trkpt lat="43.41467" lon="6.45593">
        <ele>130</ele>
        <time>2025-04-02T13:17:04.000Z</time>
      </trkpt>
      <trkpt lat="43.41485" lon="6.45613">
        <ele>131</ele>
        <time>2025-04-02T13:17:25.000Z</time>
      </trkpt>
      <trkpt lat="43.41501" lon="6.45634">
        <ele>132</ele>
        <time>2025-04-02T13:17:49.000Z</time>
      </trkpt>
      <trkpt lat="43.41518" lon="6.45654">
        <ele>133</ele>
        <time>2025-04-02T13:18:16.000Z</time>
      </trkpt>
      <trkpt lat="43.41529" lon="6.45683">
        <ele>133</ele>
        <time>2025-04-02T13:18:43.000Z</time>
      </trkpt>
      <trkpt lat="43.41546" lon="6.45705">
        <ele>135</ele>
        <time>2025-04-02T13:19:16.000Z</time>
      </trkpt>
      <trkpt lat="43.41555" lon="6.45733">
        <ele>137</ele>
        <time>2025-04-02T13:19:43.000Z</time>
      </trkpt>
      <trkpt lat="43.41561" lon="6.45762">
        <ele>139</ele>
        <time>2025-04-02T13:20:07.000Z</time>
      </trkpt>
      <trkpt lat="43.41577" lon="6.4578">
        <ele>142</ele>
        <time>2025-04-02T13:20:28.000Z</time>
      </trkpt>
      <trkpt lat="43.41584" lon="6.4581">
        <ele>145</ele>
        <time>2025-04-02T13:20:52.000Z</time>
      </trkpt>
      <trkpt lat="43.41587" lon="6.45841">
        <ele>148</ele>
        <time>2025-04-02T13:21:16.000Z</time>
      </trkpt>
      <trkpt lat="43.41586" lon="6.45874">
        <ele>150</ele>
        <time>2025-04-02T13:21:49.000Z</time>
      </trkpt>
      <trkpt lat="43.41582" lon="6.45905">
        <ele>152</ele>
        <time>2025-04-02T13:22:13.000Z</time>
      </trkpt>
      <trkpt lat="43.41574" lon="6.45934">
        <ele>154</ele>
        <time>2025-04-02T13:22:34.000Z</time>
      </trkpt>
      <trkpt lat="43.41578" lon="6.45964">
        <ele>155</ele>
        <time>2025-04-02T13:30:19.000Z</time>
      </trkpt>
      <trkpt lat="43.41582" lon="6.45994">
        <ele>155</ele>
        <time>2025-04-02T13:30:40.000Z</time>
      </trkpt>
      <trkpt lat="43.41588" lon="6.46026">
        <ele>155</ele>
        <time>2025-04-02T13:31:10.000Z</time>
      </trkpt>
      <trkpt lat="43.41598" lon="6.46057">
        <ele>154</ele>
        <time>2025-04-02T13:31:34.000Z</time>
      </trkpt>
      <trkpt lat="43.41597" lon="6.46088">
        <ele>152</ele>
        <time>2025-04-02T13:31:55.000Z</time>
      </trkpt>
      <trkpt lat="43.41598" lon="6.4612">
        <ele>151</ele>
        <time>2025-04-02T13:32:28.000Z</time>
      </trkpt>
      <trkpt lat="43.4159" lon="6.46149">
        <ele>149</ele>
        <time>2025-04-02T13:32:55.000Z</time>
      </trkpt>
      <trkpt lat="43.41592" lon="6.46179">
        <ele>147</ele>
        <time>2025-04-02T13:33:22.000Z</time>
      </trkpt>
      <trkpt lat="43.41602" lon="6.46206">
        <ele>145</ele>
        <time>2025-04-02T13:33:46.000Z</time>
      </trkpt>
      <trkpt lat="43.41617" lon="6.46232">
        <ele>143</ele>
        <time>2025-04-02T13:34:07.000Z</time>
      </trkpt>
      <trkpt lat="43.41621" lon="6.46264">
        <ele>141</ele>
        <time>2025-04-02T13:34:28.000Z</time>
      </trkpt>
      <trkpt lat="43.41621" lon="6.46298">
        <ele>140</ele>
        <time>2025-04-02T13:34:49.000Z</time>
      </trkpt>
      <trkpt lat="43.41616" lon="6.46328">
        <ele>138</ele>
        <time>2025-04-02T13:35:07.000Z</time>
      </trkpt>
      <trkpt lat="43.41611" lon="6.46361">
        <ele>135</ele>
        <time>2025-04-02T13:35:28.000Z</time>
      </trkpt>
      <trkpt lat="43.41607" lon="6.46392">
        <ele>133</ele>
        <time>2025-04-02T13:35:49.000Z</time>
      </trkpt>
      <trkpt lat="43.41607" lon="6.46424">
        <ele>131</ele>
        <time>2025-04-02T13:36:10.000Z</time>
      </trkpt>
      <trkpt lat="43.41606" lon="6.46455">
        <ele>129</ele>
        <time>2025-04-02T13:36:31.000Z</time>
      </trkpt>
      <trkpt lat="43.41611" lon="6.46489">
        <ele>127</ele>
        <time>2025-04-02T13:36:55.000Z</time>
      </trkpt>
      <trkpt lat="43.4162" lon="6.46521">
        <ele>126</ele>
        <time>2025-04-02T13:37:16.000Z</time>
      </trkpt>
      <trkpt lat="43.41619" lon="6.46551">
        <ele>124</ele>
        <time>2025-04-02T13:37:34.000Z</time>
      </trkpt>
      <trkpt lat="43.41615" lon="6.46582">
        <ele>123</ele>
        <time>2025-04-02T13:37:52.000Z</time>
      </trkpt>
      <trkpt lat="43.4162" lon="6.46615">
        <ele>121</ele>
        <time>2025-04-02T13:38:13.000Z</time>
      </trkpt>
      <trkpt lat="43.41618" lon="6.46649">
        <ele>120</ele>
        <time>2025-04-02T13:38:34.000Z</time>
      </trkpt>
      <trkpt lat="43.41604" lon="6.46677">
        <ele>118</ele>
        <time>2025-04-02T13:38:52.000Z</time>
      </trkpt>
      <trkpt lat="43.41593" lon="6.46705">
        <ele>117</ele>
        <time>2025-04-02T13:39:13.000Z</time>
      </trkpt>
      <trkpt lat="43.41586" lon="6.46737">
        <ele>115</ele>
        <time>2025-04-02T13:39:34.000Z</time>
      </trkpt>
      <trkpt lat="43.41578" lon="6.4677">
        <ele>114</ele>
        <time>2025-04-02T13:39:55.000Z</time>
      </trkpt>
      <trkpt lat="43.41571" lon="6.46801">
        <ele>113</ele>
        <time>2025-04-02T13:43:04.000Z</time>
      </trkpt>
      <trkpt lat="43.4157" lon="6.46833">
        <ele>113</ele>
        <time>2025-04-02T13:43:31.000Z</time>
      </trkpt>
      <trkpt lat="43.41565" lon="6.46864">
        <ele>112</ele>
        <time>2025-04-02T13:43:52.000Z</time>
      </trkpt>
      <trkpt lat="43.41575" lon="6.4689">
        <ele>112</ele>
        <time>2025-04-02T13:44:13.000Z</time>
      </trkpt>
      <trkpt lat="43.41595" lon="6.46892">
        <ele>112</ele>
        <time>2025-04-02T13:44:37.000Z</time>
      </trkpt>
      <trkpt lat="43.41612" lon="6.46869">
        <ele>112</ele>
        <time>2025-04-02T13:45:04.000Z</time>
      </trkpt>
      <trkpt lat="43.41626" lon="6.46843">
        <ele>111</ele>
        <time>2025-04-02T13:45:22.000Z</time>
      </trkpt>
      <trkpt lat="43.41639" lon="6.46817">
        <ele>111</ele>
        <time>2025-04-02T13:45:40.000Z</time>
      </trkpt>
      <trkpt lat="43.41652" lon="6.46787">
        <ele>111</ele>
        <time>2025-04-02T13:46:01.000Z</time>
      </trkpt>
      <trkpt lat="43.41663" lon="6.46758">
        <ele>110</ele>
        <time>2025-04-02T13:46:19.000Z</time>
      </trkpt>
      <trkpt lat="43.41674" lon="6.46731">
        <ele>111</ele>
        <time>2025-04-02T13:46:37.000Z</time>
      </trkpt>
      <trkpt lat="43.41688" lon="6.46705">
        <ele>112</ele>
        <time>2025-04-02T13:46:55.000Z</time>
      </trkpt>
      <trkpt lat="43.41704" lon="6.4668">
        <ele>113</ele>
        <time>2025-04-02T13:47:16.000Z</time>
      </trkpt>
      <trkpt lat="43.41712" lon="6.46651">
        <ele>115</ele>
        <time>2025-04-02T13:47:43.000Z</time>
      </trkpt>
      <trkpt lat="43.41719" lon="6.46622">
        <ele>116</ele>
        <time>2025-04-02T13:48:04.000Z</time>
      </trkpt>
      <trkpt lat="43.41725" lon="6.4659">
        <ele>118</ele>
        <time>2025-04-02T13:48:28.000Z</time>
      </trkpt>
      <trkpt lat="43.41734" lon="6.46558">
        <ele>120</ele>
        <time>2025-04-02T13:48:49.000Z</time>
      </trkpt>
      <trkpt lat="43.41738" lon="6.46525">
        <ele>121</ele>
        <time>2025-04-02T13:49:13.000Z</time>
      </trkpt>
      <trkpt lat="43.4174" lon="6.46494">
        <ele>122</ele>
        <time>2025-04-02T13:49:34.000Z</time>
      </trkpt>
      <trkpt lat="43.41741" lon="6.4646">
        <ele>123</ele>
        <time>2025-04-02T13:49:55.000Z</time>
      </trkpt>
      <trkpt lat="43.41742" lon="6.46425">
        <ele>124</ele>
        <time>2025-04-02T13:50:16.000Z</time>
      </trkpt>
      <trkpt lat="43.4175" lon="6.4639">
        <ele>125</ele>
        <time>2025-04-02T13:50:37.000Z</time>
      </trkpt>
      <trkpt lat="43.41781" lon="6.46347">
        <ele>127</ele>
        <time>2025-04-02T13:51:18.000Z</time>
      </trkpt>
      <trkpt lat="43.41802" lon="6.46324">
        <ele>128</ele>
        <time>2025-04-02T13:51:40.000Z</time>
      </trkpt>
      <trkpt lat="43.4182" lon="6.463">
        <ele>130</ele>
        <time>2025-04-02T13:52:01.000Z</time>
      </trkpt>
      <trkpt lat="43.41835" lon="6.46275">
        <ele>132</ele>
        <time>2025-04-02T13:52:25.000Z</time>
      </trkpt>
      <trkpt lat="43.4185" lon="6.4625">
        <ele>133</ele>
        <time>2025-04-02T13:56:10.000Z</time>
      </trkpt>
      <trkpt lat="43.41862" lon="6.46222">
        <ele>135</ele>
        <time>2025-04-02T13:56:34.000Z</time>
      </trkpt>
      <trkpt lat="43.41875" lon="6.46194">
        <ele>136</ele>
        <time>2025-04-02T13:56:55.000Z</time>
      </trkpt>
      <trkpt lat="43.4189" lon="6.46171">
        <ele>138</ele>
        <time>2025-04-02T13:57:13.000Z</time>
      </trkpt>
      <trkpt lat="43.41905" lon="6.46145">
        <ele>139</ele>
        <time>2025-04-02T13:57:34.000Z</time>
      </trkpt>
      <trkpt lat="43.41917" lon="6.46117">
        <ele>141</ele>
        <time>2025-04-02T13:57:52.000Z</time>
      </trkpt>
      <trkpt lat="43.41928" lon="6.46089">
        <ele>142</ele>
        <time>2025-04-02T13:58:13.000Z</time>
      </trkpt>
      <trkpt lat="43.41943" lon="6.46064">
        <ele>143</ele>
        <time>2025-04-02T13:58:34.000Z</time>
      </trkpt>
      <trkpt lat="43.41961" lon="6.46042">
        <ele>144</ele>
        <time>2025-04-02T13:58:52.000Z</time>
      </trkpt>
      <trkpt lat="43.41975" lon="6.46015">
        <ele>145</ele>
        <time>2025-04-02T13:59:13.000Z</time>
      </trkpt>
      <trkpt lat="43.41977" lon="6.45982">
        <ele>147</ele>
        <time>2025-04-02T13:59:34.000Z</time>
      </trkpt>
      <trkpt lat="43.4197" lon="6.45953">
        <ele>148</ele>
        <time>2025-04-02T13:59:52.000Z</time>
      </trkpt>
      <trkpt lat="43.41972" lon="6.45922">
        <ele>150</ele>
        <time>2025-04-02T14:00:13.000Z</time>
      </trkpt>
      <trkpt lat="43.41987" lon="6.45898">
        <ele>151</ele>
        <time>2025-04-02T14:00:34.000Z</time>
      </trkpt>
      <trkpt lat="43.42004" lon="6.45874">
        <ele>153</ele>
        <time>2025-04-02T14:00:55.000Z</time>
      </trkpt>
      <trkpt lat="43.42015" lon="6.45846">
        <ele>155</ele>
        <time>2025-04-02T14:01:16.000Z</time>
      </trkpt>
      <trkpt lat="43.42023" lon="6.45815">
        <ele>156</ele>
        <time>2025-04-02T14:01:37.000Z</time>
      </trkpt>
      <trkpt lat="43.42037" lon="6.45787">
        <ele>158</ele>
        <time>2025-04-02T14:01:58.000Z</time>
      </trkpt>
      <trkpt lat="43.42053" lon="6.4576">
        <ele>160</ele>
        <time>2025-04-02T14:02:22.000Z</time>
      </trkpt>
      <trkpt lat="43.42066" lon="6.45735">
        <ele>161</ele>
        <time>2025-04-02T14:02:43.000Z</time>
      </trkpt>
      <trkpt lat="43.42077" lon="6.45707">
        <ele>163</ele>
        <time>2025-04-02T14:03:04.000Z</time>
      </trkpt>
      <trkpt lat="43.42085" lon="6.45676">
        <ele>165</ele>
        <time>2025-04-02T14:03:22.000Z</time>
      </trkpt>
      <trkpt lat="43.42093" lon="6.45647">
        <ele>166</ele>
        <time>2025-04-02T14:03:40.000Z</time>
      </trkpt>
      <trkpt lat="43.42106" lon="6.45619">
        <ele>168</ele>
        <time>2025-04-02T14:04:01.000Z</time>
      </trkpt>
      <trkpt lat="43.4212" lon="6.45594">
        <ele>169</ele>
        <time>2025-04-02T14:04:22.000Z</time>
      </trkpt>
      <trkpt lat="43.4213" lon="6.45566">
        <ele>170</ele>
        <time>2025-04-02T14:04:43.000Z</time>
      </trkpt>
      <trkpt lat="43.42131" lon="6.45534">
        <ele>172</ele>
        <time>2025-04-02T14:05:04.000Z</time>
      </trkpt>
      <trkpt lat="43.42127" lon="6.455">
        <ele>173</ele>
        <time>2025-04-02T14:05:25.000Z</time>
      </trkpt>
      <trkpt lat="43.42125" lon="6.45468">
        <ele>174</ele>
        <time>2025-04-02T14:05:43.000Z</time>
      </trkpt>
      <trkpt lat="43.4212" lon="6.45436">
        <ele>175</ele>
        <time>2025-04-02T14:06:04.000Z</time>
      </trkpt>
      <trkpt lat="43.42115" lon="6.45404">
        <ele>176</ele>
        <time>2025-04-02T14:14:10.000Z</time>
      </trkpt>
      <trkpt lat="43.42104" lon="6.45376">
        <ele>177</ele>
        <time>2025-04-02T14:14:37.000Z</time>
      </trkpt>
      <trkpt lat="43.42099" lon="6.45344">
        <ele>178</ele>
        <time>2025-04-02T14:14:58.000Z</time>
      </trkpt>
      <trkpt lat="43.42096" lon="6.4531">
        <ele>181</ele>
        <time>2025-04-02T14:15:19.000Z</time>
      </trkpt>
      <trkpt lat="43.42091" lon="6.45277">
        <ele>180</ele>
        <time>2025-04-02T14:15:40.000Z</time>
      </trkpt>
      <trkpt lat="43.42088" lon="6.45245">
        <ele>179</ele>
        <time>2025-04-02T14:16:01.000Z</time>
      </trkpt>
    </trkseg>
  </trk>
</gpx>